sensor_id;sensor_type;location;lat;lon;timestamp;temperature;humidity
64499;SHT31;51087;55.718;21.122;2023-06-14T00:00:13;14.34;66.78
64499;SHT31;51087;55.718;21.122;2023-06-14T00:02:39;14.30;66.69
64499;SHT31;51087;55.718;21.122;2023-06-14T00:05:05;14.25;66.70
64499;SHT31;51087;55.718;21.122;2023-06-14T00:07:36;14.28;66.84
64499;SHT31;51087;55.718;21.122;2023-06-14T00:10:02;14.25;66.70
64499;SHT31;51087;55.718;21.122;2023-06-14T00:12:29;14.15;66.98
64499;SHT31;51087;55.718;21.122;2023-06-14T00:14:55;14.12;67.25
64499;SHT31;51087;55.718;21.122;2023-06-14T00:17:21;14.11;67.65
64499;SHT31;51087;55.718;21.122;2023-06-14T00:19:46;14.01;67.59
64499;SHT31;51087;55.718;21.122;2023-06-14T00:22:12;13.89;67.85
64499;SHT31;51087;55.718;21.122;2023-06-14T00:24:37;13.95;67.79
64499;SHT31;51087;55.718;21.122;2023-06-14T00:27:03;13.88;67.87
64499;SHT31;51087;55.718;21.122;2023-06-14T00:29:28;13.81;68.07
64499;SHT31;51087;55.718;21.122;2023-06-14T00:31:54;13.78;68.26
64499;SHT31;51087;55.718;21.122;2023-06-14T00:34:19;13.74;68.31
64499;SHT31;51087;55.718;21.122;2023-06-14T00:36:45;13.77;68.40
64499;SHT31;51087;55.718;21.122;2023-06-14T00:39:10;13.70;68.65
64499;SHT31;51087;55.718;21.122;2023-06-14T00:41:37;13.63;68.52
64499;SHT31;51087;55.718;21.122;2023-06-14T00:44:02;13.61;68.68
64499;SHT31;51087;55.718;21.122;2023-06-14T00:46:28;13.58;68.75
64499;SHT31;51087;55.718;21.122;2023-06-14T00:48:55;13.54;68.74
64499;SHT31;51087;55.718;21.122;2023-06-14T00:51:21;13.57;68.77
64499;SHT31;51087;55.718;21.122;2023-06-14T00:53:47;13.54;68.93
64499;SHT31;51087;55.718;21.122;2023-06-14T00:56:14;13.50;68.98
64499;SHT31;51087;55.718;21.122;2023-06-14T00:58:39;13.47;69.04
64499;SHT31;51087;55.718;21.122;2023-06-14T01:01:05;13.48;69.18
64499;SHT31;51087;55.718;21.122;2023-06-14T01:03:30;13.47;69.22
64499;SHT31;51087;55.718;21.122;2023-06-14T01:06:27;13.46;69.23
64499;SHT31;51087;55.718;21.122;2023-06-14T01:11:35;13.39;69.39
64499;SHT31;51087;55.718;21.122;2023-06-14T01:14:03;13.42;69.61
64499;SHT31;51087;55.718;21.122;2023-06-14T01:16:29;13.36;69.45
64499;SHT31;51087;55.718;21.122;2023-06-14T01:18:56;13.39;69.58
64499;SHT31;51087;55.718;21.122;2023-06-14T01:21:24;13.33;69.68
64499;SHT31;51087;55.718;21.122;2023-06-14T01:23:50;13.29;69.73
64499;SHT31;51087;55.718;21.122;2023-06-14T01:26:21;13.29;69.72
64499;SHT31;51087;55.718;21.122;2023-06-14T01:28:47;13.27;69.86
64499;SHT31;51087;55.718;21.122;2023-06-14T01:31:19;13.32;69.94
64499;SHT31;51087;55.718;21.122;2023-06-14T01:33:48;13.19;70.00
64499;SHT31;51087;55.718;21.122;2023-06-14T01:36:14;13.18;69.92
64499;SHT31;51087;55.718;21.122;2023-06-14T01:38:42;13.22;69.83
64499;SHT31;51087;55.718;21.122;2023-06-14T01:41:09;13.22;70.18
64499;SHT31;51087;55.718;21.122;2023-06-14T01:43:35;13.18;70.34
64499;SHT31;51087;55.718;21.122;2023-06-14T01:46:02;13.16;70.30
64499;SHT31;51087;55.718;21.122;2023-06-14T01:48:28;13.15;70.20
64499;SHT31;51087;55.718;21.122;2023-06-14T01:50:53;13.12;70.22
64499;SHT31;51087;55.718;21.122;2023-06-14T01:53:19;13.08;70.32
64499;SHT31;51087;55.718;21.122;2023-06-14T01:55:44;13.12;70.37
64499;SHT31;51087;55.718;21.122;2023-06-14T01:58:14;13.05;70.36
64499;SHT31;51087;55.718;21.122;2023-06-14T02:00:44;13.03;70.36
64499;SHT31;51087;55.718;21.122;2023-06-14T02:03:10;13.05;70.40
64499;SHT31;51087;55.718;21.122;2023-06-14T02:05:39;13.05;70.50
64499;SHT31;51087;55.718;21.122;2023-06-14T02:08:05;13.09;70.41
64499;SHT31;51087;55.718;21.122;2023-06-14T02:10:31;13.09;70.49
64499;SHT31;51087;55.718;21.122;2023-06-14T02:12:56;13.05;70.49
64499;SHT31;51087;55.718;21.122;2023-06-14T02:15:21;13.03;70.48
64499;SHT31;51087;55.718;21.122;2023-06-14T02:17:48;13.02;70.53
64499;SHT31;51087;55.718;21.122;2023-06-14T02:20:17;12.99;70.59
64499;SHT31;51087;55.718;21.122;2023-06-14T02:22:42;12.95;70.67
64499;SHT31;51087;55.718;21.122;2023-06-14T02:25:08;12.85;70.75
64499;SHT31;51087;55.718;21.122;2023-06-14T02:27:34;12.91;70.80
64499;SHT31;51087;55.718;21.122;2023-06-14T02:30:00;12.92;70.56
64499;SHT31;51087;55.718;21.122;2023-06-14T02:32:26;13.03;70.53
64499;SHT31;51087;55.718;21.122;2023-06-14T02:34:52;13.01;70.27
64499;SHT31;51087;55.718;21.122;2023-06-14T02:37:18;12.96;70.30
64499;SHT31;51087;55.718;21.122;2023-06-14T02:39:44;13.08;70.25
64499;SHT31;51087;55.718;21.122;2023-06-14T02:42:09;12.95;70.45
64499;SHT31;51087;55.718;21.122;2023-06-14T02:44:35;12.99;70.48
64499;SHT31;51087;55.718;21.122;2023-06-14T02:47:01;13.08;70.55
64499;SHT31;51087;55.718;21.122;2023-06-14T02:49:26;12.93;70.62
64499;SHT31;51087;55.718;21.122;2023-06-14T02:51:52;12.91;70.77
64499;SHT31;51087;55.718;21.122;2023-06-14T02:54:17;12.87;70.89
64499;SHT31;51087;55.718;21.122;2023-06-14T02:56:43;12.87;70.86
64499;SHT31;51087;55.718;21.122;2023-06-14T02:59:09;12.89;70.70
64499;SHT31;51087;55.718;21.122;2023-06-14T03:01:35;12.89;70.68
64499;SHT31;51087;55.718;21.122;2023-06-14T03:04:03;12.89;70.61
64499;SHT31;51087;55.718;21.122;2023-06-14T03:06:29;12.99;70.28
64499;SHT31;51087;55.718;21.122;2023-06-14T03:09:00;13.03;69.91
64499;SHT31;51087;55.718;21.122;2023-06-14T03:11:26;13.18;69.73
64499;SHT31;51087;55.718;21.122;2023-06-14T03:13:52;13.20;69.42
64499;SHT31;51087;55.718;21.122;2023-06-14T03:16:19;13.20;69.49
64499;SHT31;51087;55.718;21.122;2023-06-14T03:18:48;13.24;69.53
64499;SHT31;51087;55.718;21.122;2023-06-14T03:21:13;13.32;69.59
64499;SHT31;51087;55.718;21.122;2023-06-14T03:23:41;13.27;69.59
64499;SHT31;51087;55.718;21.122;2023-06-14T03:26:06;13.36;69.77
64499;SHT31;51087;55.718;21.122;2023-06-14T03:28:31;13.36;69.52
64499;SHT31;51087;55.718;21.122;2023-06-14T03:30:57;13.40;69.53
64499;SHT31;51087;55.718;21.122;2023-06-14T03:33:22;13.44;69.59
64499;SHT31;51087;55.718;21.122;2023-06-14T03:35:48;13.44;69.35
64499;SHT31;51087;55.718;21.122;2023-06-14T03:38:13;13.53;69.32
64499;SHT31;51087;55.718;21.122;2023-06-14T03:40:38;13.61;69.17
64499;SHT31;51087;55.718;21.122;2023-06-14T03:43:04;13.73;69.14
64499;SHT31;51087;55.718;21.122;2023-06-14T03:45:29;13.70;69.03
64499;SHT31;51087;55.718;21.122;2023-06-14T03:47:55;13.84;68.89
64499;SHT31;51087;55.718;21.122;2023-06-14T03:50:21;13.85;68.79
64499;SHT31;51087;55.718;21.122;2023-06-14T03:52:48;13.85;68.74
64499;SHT31;51087;55.718;21.122;2023-06-14T03:55:14;13.97;68.57
64499;SHT31;51087;55.718;21.122;2023-06-14T03:57:41;13.97;68.59
64499;SHT31;51087;55.718;21.122;2023-06-14T04:00:08;14.11;68.42
64499;SHT31;51087;55.718;21.122;2023-06-14T04:02:34;14.18;68.26
64499;SHT31;51087;55.718;21.122;2023-06-14T04:05:02;14.29;68.06
64499;SHT31;51087;55.718;21.122;2023-06-14T04:07:27;14.36;67.80
64499;SHT31;51087;55.718;21.122;2023-06-14T04:09:54;14.44;67.82
64499;SHT31;51087;55.718;21.122;2023-06-14T04:12:19;14.47;67.92
64499;SHT31;51087;55.718;21.122;2023-06-14T04:14:45;14.50;67.77
64499;SHT31;51087;55.718;21.122;2023-06-14T04:17:10;14.57;67.87
64499;SHT31;51087;55.718;21.122;2023-06-14T04:19:36;14.71;67.74
64499;SHT31;51087;55.718;21.122;2023-06-14T04:22:01;14.78;67.55
64499;SHT31;51087;55.718;21.122;2023-06-14T04:24:28;14.81;67.62
64499;SHT31;51087;55.718;21.122;2023-06-14T04:26:58;15.02;67.39
64499;SHT31;51087;55.718;21.122;2023-06-14T04:29:24;15.06;67.29
64499;SHT31;51087;55.718;21.122;2023-06-14T04:31:53;15.16;67.31
64499;SHT31;51087;55.718;21.122;2023-06-14T04:34:19;15.29;67.05
64499;SHT31;51087;55.718;21.122;2023-06-14T04:36:47;15.26;67.40
64499;SHT31;51087;55.718;21.122;2023-06-14T04:39:21;15.31;67.79
64499;SHT31;51087;55.718;21.122;2023-06-14T04:41:46;15.35;67.53
64499;SHT31;51087;55.718;21.122;2023-06-14T04:44:13;15.43;67.70
64499;SHT31;51087;55.718;21.122;2023-06-14T04:46:39;15.50;67.54
64499;SHT31;51087;55.718;21.122;2023-06-14T04:49:17;15.57;67.59
64499;SHT31;51087;55.718;21.122;2023-06-14T04:51:43;15.71;67.28
64499;SHT31;51087;55.718;21.122;2023-06-14T04:54:09;15.83;67.47
64499;SHT31;51087;55.718;21.122;2023-06-14T04:56:39;15.98;66.92
64499;SHT31;51087;55.718;21.122;2023-06-14T04:59:05;16.09;66.85
64499;SHT31;51087;55.718;21.122;2023-06-14T05:01:31;16.19;66.78
64499;SHT31;51087;55.718;21.122;2023-06-14T05:03:57;16.33;66.24
64499;SHT31;51087;55.718;21.122;2023-06-14T05:06:23;16.46;66.23
64499;SHT31;51087;55.718;21.122;2023-06-14T05:08:49;16.59;65.62
64499;SHT31;51087;55.718;21.122;2023-06-14T05:11:14;16.73;65.38
64499;SHT31;51087;55.718;21.122;2023-06-14T05:13:42;16.84;65.00
64499;SHT31;51087;55.718;21.122;2023-06-14T05:16:07;17.03;64.61
64499;SHT31;51087;55.718;21.122;2023-06-14T05:18:33;17.12;64.03
64499;SHT31;51087;55.718;21.122;2023-06-14T05:21:01;17.18;63.85
64499;SHT31;51087;55.718;21.122;2023-06-14T05:23:26;17.25;64.16
64499;SHT31;51087;55.718;21.122;2023-06-14T05:25:52;17.35;64.01
64499;SHT31;51087;55.718;21.122;2023-06-14T05:28:18;17.59;63.14
64499;SHT31;51087;55.718;21.122;2023-06-14T05:30:43;17.70;63.41
64499;SHT31;51087;55.718;21.122;2023-06-14T05:33:09;17.82;62.29
64499;SHT31;51087;55.718;21.122;2023-06-14T05:35:34;17.98;61.80
64499;SHT31;51087;55.718;21.122;2023-06-14T05:38:00;18.10;61.20
64499;SHT31;51087;55.718;21.122;2023-06-14T05:40:25;18.25;60.22
64499;SHT31;51087;55.718;21.122;2023-06-14T05:42:51;18.49;59.94
64499;SHT31;51087;55.718;21.122;2023-06-14T05:45:16;18.52;60.27
64499;SHT31;51087;55.718;21.122;2023-06-14T05:47:42;18.72;59.13
64499;SHT31;51087;55.718;21.122;2023-06-14T05:50:08;18.83;59.00
64499;SHT31;51087;55.718;21.122;2023-06-14T05:52:36;18.92;59.28
64499;SHT31;51087;55.718;21.122;2023-06-14T05:55:05;19.04;59.29
64499;SHT31;51087;55.718;21.122;2023-06-14T05:57:31;19.17;57.66
64499;SHT31;51087;55.718;21.122;2023-06-14T05:59:56;19.25;57.52
64499;SHT31;51087;55.718;21.122;2023-06-14T06:02:22;19.38;57.74
64499;SHT31;51087;55.718;21.122;2023-06-14T06:04:49;19.54;57.10
64499;SHT31;51087;55.718;21.122;2023-06-14T06:07:14;19.62;57.00
64499;SHT31;51087;55.718;21.122;2023-06-14T06:09:40;19.65;56.45
64499;SHT31;51087;55.718;21.122;2023-06-14T06:12:06;19.81;55.21
64499;SHT31;51087;55.718;21.122;2023-06-14T06:14:32;19.86;55.12
64499;SHT31;51087;55.718;21.122;2023-06-14T06:16:58;19.86;55.36
64499;SHT31;51087;55.718;21.122;2023-06-14T06:19:23;19.89;54.93
64499;SHT31;51087;55.718;21.122;2023-06-14T06:21:49;19.99;55.02
64499;SHT31;51087;55.718;21.122;2023-06-14T06:24:15;20.09;54.97
64499;SHT31;51087;55.718;21.122;2023-06-14T06:26:40;20.21;54.08
64499;SHT31;51087;55.718;21.122;2023-06-14T06:29:05;20.34;53.14
64499;SHT31;51087;55.718;21.122;2023-06-14T06:31:31;20.43;53.27
64499;SHT31;51087;55.718;21.122;2023-06-14T06:33:56;20.59;53.35
64499;SHT31;51087;55.718;21.122;2023-06-14T06:36:22;20.81;52.43
64499;SHT31;51087;55.718;21.122;2023-06-14T06:38:48;20.86;52.00
64499;SHT31;51087;55.718;21.122;2023-06-14T06:41:13;20.95;52.04
64499;SHT31;51087;55.718;21.122;2023-06-14T06:43:39;20.98;51.19
64499;SHT31;51087;55.718;21.122;2023-06-14T06:46:04;21.03;51.30
64499;SHT31;51087;55.718;21.122;2023-06-14T06:48:30;21.22;50.45
64499;SHT31;51087;55.718;21.122;2023-06-14T06:50:55;21.39;50.09
64499;SHT31;51087;55.718;21.122;2023-06-14T06:53:21;21.48;51.01
64499;SHT31;51087;55.718;21.122;2023-06-14T06:55:46;21.54;50.08
64499;SHT31;51087;55.718;21.122;2023-06-14T06:58:14;21.67;47.99
64499;SHT31;51087;55.718;21.122;2023-06-14T07:00:39;21.79;48.05
64499;SHT31;51087;55.718;21.122;2023-06-14T07:03:05;21.88;48.18
64499;SHT31;51087;55.718;21.122;2023-06-14T07:05:30;22.01;47.86
64499;SHT31;51087;55.718;21.122;2023-06-14T07:07:56;22.09;48.14
64499;SHT31;51087;55.718;21.122;2023-06-14T07:10:22;22.15;46.78
64499;SHT31;51087;55.718;21.122;2023-06-14T07:12:47;22.19;46.32
64499;SHT31;51087;55.718;21.122;2023-06-14T07:15:13;22.29;46.47
64499;SHT31;51087;55.718;21.122;2023-06-14T07:17:38;22.44;45.67
64499;SHT31;51087;55.718;21.122;2023-06-14T07:20:04;22.51;46.88
64499;SHT31;51087;55.718;21.122;2023-06-14T07:22:40;22.68;45.27
64499;SHT31;51087;55.718;21.122;2023-06-14T07:25:10;22.78;44.61
64499;SHT31;51087;55.718;21.122;2023-06-14T07:27:38;22.88;46.36
64499;SHT31;51087;55.718;21.122;2023-06-14T07:30:04;22.97;44.87
64499;SHT31;51087;55.718;21.122;2023-06-14T07:32:30;23.01;41.45
64499;SHT31;51087;55.718;21.122;2023-06-14T07:34:55;23.16;41.74
64499;SHT31;51087;55.718;21.122;2023-06-14T07:37:20;23.15;40.37
64499;SHT31;51087;55.718;21.122;2023-06-14T07:39:46;23.14;43.76
64499;SHT31;51087;55.718;21.122;2023-06-14T07:42:11;23.16;43.36
64499;SHT31;51087;55.718;21.122;2023-06-14T07:44:36;23.25;40.97
64499;SHT31;51087;55.718;21.122;2023-06-14T07:47:02;23.29;41.02
64499;SHT31;51087;55.718;21.122;2023-06-14T07:49:27;23.39;39.86
64499;SHT31;51087;55.718;21.122;2023-06-14T07:51:53;23.45;39.17
64499;SHT31;51087;55.718;21.122;2023-06-14T07:54:19;23.56;40.09
64499;SHT31;51087;55.718;21.122;2023-06-14T07:56:45;23.75;38.93
64499;SHT31;51087;55.718;21.122;2023-06-14T07:59:11;23.77;38.81
64499;SHT31;51087;55.718;21.122;2023-06-14T08:01:36;23.77;38.18
64499;SHT31;51087;55.718;21.122;2023-06-14T08:04:01;23.82;38.84
64499;SHT31;51087;55.718;21.122;2023-06-14T08:06:27;23.75;38.59
64499;SHT31;51087;55.718;21.122;2023-06-14T08:08:52;23.77;38.65
64499;SHT31;51087;55.718;21.122;2023-06-14T08:11:18;23.82;38.49
64499;SHT31;51087;55.718;21.122;2023-06-14T08:13:43;23.84;38.28
64499;SHT31;51087;55.718;21.122;2023-06-14T08:16:09;23.93;38.02
64499;SHT31;51087;55.718;21.122;2023-06-14T08:18:34;24.17;38.07
64499;SHT31;51087;55.718;21.122;2023-06-14T08:21:00;24.33;37.60
64499;SHT31;51087;55.718;21.122;2023-06-14T08:23:25;24.56;37.22
64499;SHT31;51087;55.718;21.122;2023-06-14T08:25:51;24.76;37.15
64499;SHT31;51087;55.718;21.122;2023-06-14T08:28:16;24.93;37.34
64499;SHT31;51087;55.718;21.122;2023-06-14T08:30:42;24.94;36.96
64499;SHT31;51087;55.718;21.122;2023-06-14T08:33:08;24.72;37.17
64499;SHT31;51087;55.718;21.122;2023-06-14T08:35:33;24.51;37.73
64499;SHT31;51087;55.718;21.122;2023-06-14T08:38:02;24.77;37.83
64499;SHT31;51087;55.718;21.122;2023-06-14T08:40:30;25.12;37.55
64499;SHT31;51087;55.718;21.122;2023-06-14T08:42:55;25.35;36.95
64499;SHT31;51087;55.718;21.122;2023-06-14T08:45:22;25.35;35.91
64499;SHT31;51087;55.718;21.122;2023-06-14T08:47:48;25.61;35.74
64499;SHT31;51087;55.718;21.122;2023-06-14T08:50:24;25.67;35.95
64499;SHT31;51087;55.718;21.122;2023-06-14T08:52:56;25.94;36.02
64499;SHT31;51087;55.718;21.122;2023-06-14T08:55:26;25.77;35.96
64499;SHT31;51087;55.718;21.122;2023-06-14T08:57:54;25.66;35.54
64499;SHT31;51087;55.718;21.122;2023-06-14T09:00:22;25.37;35.92
64499;SHT31;51087;55.718;21.122;2023-06-14T09:02:47;25.35;36.42
64499;SHT31;51087;55.718;21.122;2023-06-14T09:05:13;25.86;35.88
64499;SHT31;51087;55.718;21.122;2023-06-14T09:07:40;25.83;35.70
64499;SHT31;51087;55.718;21.122;2023-06-14T09:10:12;25.70;35.87
64499;SHT31;51087;55.718;21.122;2023-06-14T09:12:38;25.10;36.20
64499;SHT31;51087;55.718;21.122;2023-06-14T09:15:07;24.90;36.77
64499;SHT31;51087;55.718;21.122;2023-06-14T09:17:38;24.83;36.80
64499;SHT31;51087;55.718;21.122;2023-06-14T09:20:04;24.83;37.00
64499;SHT31;51087;55.718;21.122;2023-06-14T09:22:46;24.77;36.92
64499;SHT31;51087;55.718;21.122;2023-06-14T09:25:17;24.97;37.01
64499;SHT31;51087;55.718;21.122;2023-06-14T09:27:45;25.41;37.08
64499;SHT31;51087;55.718;21.122;2023-06-14T09:30:12;25.42;36.61
64499;SHT31;51087;55.718;21.122;2023-06-14T09:32:39;25.66;36.52
64499;SHT31;51087;55.718;21.122;2023-06-14T09:35:09;25.73;36.19
64499;SHT31;51087;55.718;21.122;2023-06-14T09:37:35;25.84;35.23
64499;SHT31;51087;55.718;21.122;2023-06-14T09:40:03;26.00;34.88
64499;SHT31;51087;55.718;21.122;2023-06-14T09:42:28;26.21;35.05
64499;SHT31;51087;55.718;21.122;2023-06-14T09:44:55;26.51;35.36
64499;SHT31;51087;55.718;21.122;2023-06-14T09:47:22;27.41;34.26
64499;SHT31;51087;55.718;21.122;2023-06-14T09:49:48;27.89;33.27
64499;SHT31;51087;55.718;21.122;2023-06-14T09:52:16;28.00;33.33
64499;SHT31;51087;55.718;21.122;2023-06-14T09:54:43;28.60;31.80
64499;SHT31;51087;55.718;21.122;2023-06-14T09:57:12;28.26;31.72
64499;SHT31;51087;55.718;21.122;2023-06-14T09:59:41;27.81;32.74
64499;SHT31;51087;55.718;21.122;2023-06-14T10:02:16;29.80;30.12
64499;SHT31;51087;55.718;21.122;2023-06-14T10:04:53;30.05;29.99
64499;SHT31;51087;55.718;21.122;2023-06-14T10:07:23;28.60;31.68
64499;SHT31;51087;55.718;21.122;2023-06-14T10:09:52;27.42;32.91
64499;SHT31;51087;55.718;21.122;2023-06-14T10:12:18;29.46;30.64
64499;SHT31;51087;55.718;21.122;2023-06-14T10:14:50;31.70;28.23
64499;SHT31;51087;55.718;21.122;2023-06-14T10:17:25;30.28;30.17
64499;SHT31;51087;55.718;21.122;2023-06-14T10:20:30;32.70;27.66
64499;SHT31;51087;55.718;21.122;2023-06-14T10:23:21;34.12;26.38
64499;SHT31;51087;55.718;21.122;2023-06-14T10:25:54;34.24;26.27
64499;SHT31;51087;55.718;21.122;2023-06-14T10:28:21;33.82;26.21
64499;SHT31;51087;55.718;21.122;2023-06-14T10:31:11;33.79;26.33
64499;SHT31;51087;55.718;21.122;2023-06-14T10:33:39;33.33;26.45
64499;SHT31;51087;55.718;21.122;2023-06-14T10:39:06;31.87;28.55
64499;SHT31;51087;55.718;21.122;2023-06-14T10:41:37;29.25;32.15
64499;SHT31;51087;55.718;21.122;2023-06-14T10:46:37;28.94;31.11
64499;SHT31;51087;55.718;21.122;2023-06-14T10:49:03;28.87;31.72
64499;SHT31;51087;55.718;21.122;2023-06-14T10:51:30;32.65;27.73
64499;SHT31;51087;55.718;21.122;2023-06-14T10:54:12;30.08;30.05
64499;SHT31;51087;55.718;21.122;2023-06-14T10:56:51;29.84;30.33
64499;SHT31;51087;55.718;21.122;2023-06-14T10:59:18;29.49;30.72
64499;SHT31;51087;55.718;21.122;2023-06-14T11:05:06;30.90;34.74
64499;SHT31;51087;55.718;21.122;2023-06-14T11:10:39;27.99;33.03
64499;SHT31;51087;55.718;21.122;2023-06-14T11:13:08;28.65;31.71
64499;SHT31;51087;55.718;21.122;2023-06-14T11:15:35;28.88;31.04
64499;SHT31;51087;55.718;21.122;2023-06-14T11:18:05;29.37;29.67
64499;SHT31;51087;55.718;21.122;2023-06-14T11:20:33;29.19;30.32
64499;SHT31;51087;55.718;21.122;2023-06-14T11:22:59;30.57;28.93
64499;SHT31;51087;55.718;21.122;2023-06-14T11:25:25;30.73;28.36
64499;SHT31;51087;55.718;21.122;2023-06-14T11:27:53;31.33;28.90
64499;SHT31;51087;55.718;21.122;2023-06-14T11:30:19;32.62;28.89
64499;SHT31;51087;55.718;21.122;2023-06-14T11:32:48;32.96;33.97
64499;SHT31;51087;55.718;21.122;2023-06-14T11:35:15;32.07;35.01
64499;SHT31;51087;55.718;21.122;2023-06-14T11:37:40;32.08;36.23
64499;SHT31;51087;55.718;21.122;2023-06-14T11:40:07;31.35;37.26
64499;SHT31;51087;55.718;21.122;2023-06-14T11:42:33;32.45;34.92
64499;SHT31;51087;55.718;21.122;2023-06-14T11:45:00;31.67;36.89
64499;SHT31;51087;55.718;21.122;2023-06-14T11:47:34;30.32;39.29
64499;SHT31;51087;55.718;21.122;2023-06-14T11:50:00;29.95;40.24
64499;SHT31;51087;55.718;21.122;2023-06-14T11:52:26;29.70;37.99
64499;SHT31;51087;55.718;21.122;2023-06-14T11:54:52;30.29;36.99
64499;SHT31;51087;55.718;21.122;2023-06-14T11:57:18;29.98;36.06
64499;SHT31;51087;55.718;21.122;2023-06-14T11:59:44;29.89;37.49
64499;SHT31;51087;55.718;21.122;2023-06-14T12:02:21;30.49;35.18
64499;SHT31;51087;55.718;21.122;2023-06-14T12:04:47;29.81;37.12
64499;SHT31;51087;55.718;21.122;2023-06-14T12:07:17;28.60;38.99
64499;SHT31;51087;55.718;21.122;2023-06-14T12:12:21;29.40;39.51
64499;SHT31;51087;55.718;21.122;2023-06-14T12:14:47;29.34;40.30
64499;SHT31;51087;55.718;21.122;2023-06-14T12:17:12;31.02;37.60
64499;SHT31;51087;55.718;21.122;2023-06-14T12:19:44;29.82;41.09
64499;SHT31;51087;55.718;21.122;2023-06-14T12:22:11;29.19;40.94
64499;SHT31;51087;55.718;21.122;2023-06-14T12:24:37;30.76;39.76
64499;SHT31;51087;55.718;21.122;2023-06-14T12:27:03;33.16;35.71
64499;SHT31;51087;55.718;21.122;2023-06-14T12:29:30;32.95;37.06
64499;SHT31;51087;55.718;21.122;2023-06-14T12:31:56;31.98;38.04
64499;SHT31;51087;55.718;21.122;2023-06-14T12:34:25;31.72;38.08
64499;SHT31;51087;55.718;21.122;2023-06-14T12:36:55;31.07;37.53
64499;SHT31;51087;55.718;21.122;2023-06-14T12:39:21;31.91;35.59
64499;SHT31;51087;55.718;21.122;2023-06-14T12:41:47;33.35;32.42
64499;SHT31;51087;55.718;21.122;2023-06-14T12:44:14;34.03;30.62
64499;SHT31;51087;55.718;21.122;2023-06-14T12:46:41;32.48;34.44
64499;SHT31;51087;55.718;21.122;2023-06-14T12:49:10;31.42;34.13
64499;SHT31;51087;55.718;21.122;2023-06-14T12:51:37;30.70;34.64
64499;SHT31;51087;55.718;21.122;2023-06-14T12:54:05;30.06;35.84
64499;SHT31;51087;55.718;21.122;2023-06-14T12:56:31;29.70;35.47
64499;SHT31;51087;55.718;21.122;2023-06-14T12:58:59;29.40;36.71
64499;SHT31;51087;55.718;21.122;2023-06-14T13:01:24;29.53;36.25
64499;SHT31;51087;55.718;21.122;2023-06-14T13:03:50;29.60;35.28
64499;SHT31;51087;55.718;21.122;2023-06-14T13:06:17;29.09;36.23
64499;SHT31;51087;55.718;21.122;2023-06-14T13:08:42;29.16;36.66
64499;SHT31;51087;55.718;21.122;2023-06-14T13:11:08;29.06;35.12
64499;SHT31;51087;55.718;21.122;2023-06-14T13:13:34;28.43;32.08
64499;SHT31;51087;55.718;21.122;2023-06-14T13:16:00;28.10;31.69
64499;SHT31;51087;55.718;21.122;2023-06-14T13:18:25;28.28;31.94
64499;SHT31;51087;55.718;21.122;2023-06-14T13:20:51;27.96;36.84
64499;SHT31;51087;55.718;21.122;2023-06-14T13:23:17;27.55;41.71
64499;SHT31;51087;55.718;21.122;2023-06-14T13:25:44;26.14;43.74
64499;SHT31;51087;55.718;21.122;2023-06-14T13:28:09;27.78;41.64
64499;SHT31;51087;55.718;21.122;2023-06-14T13:30:35;29.54;38.77
64499;SHT31;51087;55.718;21.122;2023-06-14T13:33:01;29.82;37.85
64499;SHT31;51087;55.718;21.122;2023-06-14T13:35:26;30.06;38.76
64499;SHT31;51087;55.718;21.122;2023-06-14T13:37:52;29.84;36.65
64499;SHT31;51087;55.718;21.122;2023-06-14T13:40:17;29.81;36.32
64499;SHT31;51087;55.718;21.122;2023-06-14T13:42:45;30.35;36.87
64499;SHT31;51087;55.718;21.122;2023-06-14T13:45:12;30.33;36.01
64499;SHT31;51087;55.718;21.122;2023-06-14T13:47:38;29.75;38.39
64499;SHT31;51087;55.718;21.122;2023-06-14T13:50:04;28.47;40.39
64499;SHT31;51087;55.718;21.122;2023-06-14T13:52:30;30.18;37.54
64499;SHT31;51087;55.718;21.122;2023-06-14T13:54:55;31.90;36.24
64499;SHT31;51087;55.718;21.122;2023-06-14T13:57:20;33.08;34.09
64499;SHT31;51087;55.718;21.122;2023-06-14T13:59:46;32.28;34.45
64499;SHT31;51087;55.718;21.122;2023-06-14T14:02:12;30.88;35.16
64499;SHT31;51087;55.718;21.122;2023-06-14T14:04:39;28.79;39.69
64499;SHT31;51087;55.718;21.122;2023-06-14T14:07:05;29.30;36.98
64499;SHT31;51087;55.718;21.122;2023-06-14T14:09:31;29.64;36.14
64499;SHT31;51087;55.718;21.122;2023-06-14T14:11:58;30.02;34.64
64499;SHT31;51087;55.718;21.122;2023-06-14T14:14:24;30.36;34.55
64499;SHT31;51087;55.718;21.122;2023-06-14T14:16:50;30.11;29.96
64499;SHT31;51087;55.718;21.122;2023-06-14T14:19:20;31.41;29.32
64499;SHT31;51087;55.718;21.122;2023-06-14T14:21:45;33.63;27.52
64499;SHT31;51087;55.718;21.122;2023-06-14T14:24:10;34.06;26.56
64499;SHT31;51087;55.718;21.122;2023-06-14T14:26:37;32.63;27.10
64499;SHT31;51087;55.718;21.122;2023-06-14T14:29:02;32.58;26.98
64499;SHT31;51087;55.718;21.122;2023-06-14T14:31:28;34.20;25.73
64499;SHT31;51087;55.718;21.122;2023-06-14T14:33:54;34.58;26.12
64499;SHT31;51087;55.718;21.122;2023-06-14T14:36:19;35.37;26.18
64499;SHT31;51087;55.718;21.122;2023-06-14T14:38:45;35.36;24.73
64499;SHT31;51087;55.718;21.122;2023-06-14T14:41:12;35.05;25.09
64499;SHT31;51087;55.718;21.122;2023-06-14T14:43:37;34.75;25.31
64499;SHT31;51087;55.718;21.122;2023-06-14T14:46:03;33.99;25.80
64499;SHT31;51087;55.718;21.122;2023-06-14T14:48:28;33.48;26.14
64499;SHT31;51087;55.718;21.122;2023-06-14T14:50:53;33.20;27.04
64499;SHT31;51087;55.718;21.122;2023-06-14T14:53:19;33.93;25.77
64499;SHT31;51087;55.718;21.122;2023-06-14T14:55:44;33.88;26.25
64499;SHT31;51087;55.718;21.122;2023-06-14T14:58:12;33.08;26.50
64499;SHT31;51087;55.718;21.122;2023-06-14T15:00:38;33.33;26.07
64499;SHT31;51087;55.718;21.122;2023-06-14T15:03:03;33.45;26.66
64499;SHT31;51087;55.718;21.122;2023-06-14T15:05:29;31.41;28.16
64499;SHT31;51087;55.718;21.122;2023-06-14T15:07:54;30.83;29.35
64499;SHT31;51087;55.718;21.122;2023-06-14T15:10:19;29.92;29.49
64499;SHT31;51087;55.718;21.122;2023-06-14T15:12:45;29.44;30.39
64499;SHT31;51087;55.718;21.122;2023-06-14T15:15:10;28.95;30.75
64499;SHT31;51087;55.718;21.122;2023-06-14T15:17:36;29.19;31.58
64499;SHT31;51087;55.718;21.122;2023-06-14T15:20:02;29.68;30.09
64499;SHT31;51087;55.718;21.122;2023-06-14T15:22:27;30.08;29.77
64499;SHT31;51087;55.718;21.122;2023-06-14T15:24:53;31.01;29.01
64499;SHT31;51087;55.718;21.122;2023-06-14T15:27:18;32.20;28.46
64499;SHT31;51087;55.718;21.122;2023-06-14T15:29:44;32.36;27.54